Terminal Aerodrome Forecast
Issued by NWS Quad Cities IA IL

Home | Current Version | Previous Version | Text Only | Print | Product List | Glossary On
Versions: 1 2 3 4 5 6 7 8 9 10 11 12 13 14 15 16 17 18 19 20
444
FTUS43 KDVN 282341
TAFDBQ
TAF
KDBQ 282341Z 2900/2924 18017G24KT P6SM SHRA SCT025 OVC070
      TEMPO 2900/2902 VRB25G40KT 3SM +TSRA BR OVC035CB
     FM290200 20016KT 3SM TSRA OVC035CB
     FM290300 21012KT P6SM BKN080
     FM291400 25010KT P6SM BKN040 PROB30 2915/2919 3SM -TSRA BR
      BKN025CB=

USA.gov is the U.S. government's official web portal to all federal, state and local government web resources and services.